sensor_id;sensor_type;location;lat;lon;timestamp;pressure;altitude;pressure_sealevel;temperature;humidity
32298;BME280;18782;48.984;8.548;2023-04-27T00:00:35;100041.47;;;9.22;82.94
32298;BME280;18782;48.984;8.548;2023-04-27T00:03:02;100038.00;;;9.20;82.86
32298;BME280;18782;48.984;8.548;2023-04-27T00:05:33;100038.81;;;9.19;83.05
32298;BME280;18782;48.984;8.548;2023-04-27T00:08:01;100027.63;;;9.17;83.52
32298;BME280;18782;48.984;8.548;2023-04-27T00:10:29;100031.91;;;9.16;83.58
32298;BME280;18782;48.984;8.548;2023-04-27T00:12:56;100028.41;;;9.14;83.79
32298;BME280;18782;48.984;8.548;2023-04-27T00:15:25;100027.75;;;9.20;84.16
32298;BME280;18782;48.984;8.548;2023-04-27T00:17:53;100024.34;;;9.21;84.26
32298;BME280;18782;48.984;8.548;2023-04-27T00:20:20;100025.97;;;9.19;84.63
32298;BME280;18782;48.984;8.548;2023-04-27T00:22:49;100020.78;;;9.17;84.56
32298;BME280;18782;48.984;8.548;2023-04-27T00:25:16;100020.75;;;9.15;84.79
32298;BME280;18782;48.984;8.548;2023-04-27T00:27:44;100012.03;;;9.10;84.61
32298;BME280;18782;48.984;8.548;2023-04-27T00:30:12;100013.69;;;9.08;85.01
32298;BME280;18782;48.984;8.548;2023-04-27T00:32:40;100008.34;;;9.02;85.05
32298;BME280;18782;48.984;8.548;2023-04-27T00:35:09;100008.25;;;8.99;85.64
32298;BME280;18782;48.984;8.548;2023-04-27T00:37:37;100012.38;;;8.94;85.84
32298;BME280;18782;48.984;8.548;2023-04-27T00:40:06;100016.53;;;8.91;86.27
32298;BME280;18782;48.984;8.548;2023-04-27T00:42:34;100011.25;;;8.86;86.65
32298;BME280;18782;48.984;8.548;2023-04-27T00:45:03;100011.91;;;8.80;86.92
32298;BME280;18782;48.984;8.548;2023-04-27T00:47:31;100017.78;;;8.76;87.15
32298;BME280;18782;48.984;8.548;2023-04-27T00:50:02;100010.84;;;8.74;86.09
32298;BME280;18782;48.984;8.548;2023-04-27T00:52:35;100013.06;;;8.63;86.20
32298;BME280;18782;48.984;8.548;2023-04-27T00:55:03;100012.00;;;8.56;87.19
32298;BME280;18782;48.984;8.548;2023-04-27T00:57:32;100011.06;;;8.54;86.51
32298;BME280;18782;48.984;8.548;2023-04-27T01:00:00;100011.69;;;8.47;86.94
32298;BME280;18782;48.984;8.548;2023-04-27T01:02:28;100011.56;;;8.44;86.87
32298;BME280;18782;48.984;8.548;2023-04-27T01:04:56;100013.03;;;8.36;86.77
32298;BME280;18782;48.984;8.548;2023-04-27T01:07:25;100022.22;;;8.31;86.92
32298;BME280;18782;48.984;8.548;2023-04-27T01:09:53;100017.78;;;8.27;87.36
32298;BME280;18782;48.984;8.548;2023-04-27T01:12:21;100027.94;;;8.24;87.56
32298;BME280;18782;48.984;8.548;2023-04-27T01:14:49;100028.66;;;8.20;87.26
32298;BME280;18782;48.984;8.548;2023-04-27T01:17:16;100027.63;;;8.15;87.35
32298;BME280;18782;48.984;8.548;2023-04-27T01:19:44;100033.47;;;8.10;87.71
32298;BME280;18782;48.984;8.548;2023-04-27T01:22:12;100029.88;;;8.05;87.99
32298;BME280;18782;48.984;8.548;2023-04-27T01:24:41;100029.75;;;8.02;87.83
32298;BME280;18782;48.984;8.548;2023-04-27T01:27:09;100026.03;;;7.94;87.72
32298;BME280;18782;48.984;8.548;2023-04-27T01:29:38;100029.31;;;7.90;86.99
32298;BME280;18782;48.984;8.548;2023-04-27T01:32:07;100034.44;;;7.90;87.16
32298;BME280;18782;48.984;8.548;2023-04-27T01:34:35;100033.75;;;7.94;87.86
32298;BME280;18782;48.984;8.548;2023-04-27T01:37:03;100031.19;;;7.94;87.62
32298;BME280;18782;48.984;8.548;2023-04-27T01:39:31;100030.13;;;7.89;87.90
32298;BME280;18782;48.984;8.548;2023-04-27T01:42:00;100030.00;;;7.86;88.15
32298;BME280;18782;48.984;8.548;2023-04-27T01:44:29;100028.38;;;7.88;88.05
32298;BME280;18782;48.984;8.548;2023-04-27T01:46:57;100030.13;;;7.89;87.72
32298;BME280;18782;48.984;8.548;2023-04-27T01:49:24;100029.25;;;7.89;87.79
32298;BME280;18782;48.984;8.548;2023-04-27T01:51:52;100035.25;;;7.89;88.50
32298;BME280;18782;48.984;8.548;2023-04-27T01:54:19;100033.41;;;7.85;88.46
32298;BME280;18782;48.984;8.548;2023-04-27T02:01:02;100036.22;;;7.69;87.71
32298;BME280;18782;48.984;8.548;2023-04-27T02:03:30;100037.09;;;7.69;87.96
32298;BME280;18782;48.984;8.548;2023-04-27T02:05:58;100035.34;;;7.68;88.18
32298;BME280;18782;48.984;8.548;2023-04-27T02:08:26;100037.81;;;7.67;88.40
32298;BME280;18782;48.984;8.548;2023-04-27T02:10:53;100035.22;;;7.65;89.14
32298;BME280;18782;48.984;8.548;2023-04-27T02:13:22;100043.78;;;7.66;89.44
32298;BME280;18782;48.984;8.548;2023-04-27T02:15:50;100031.09;;;7.69;89.52
32298;BME280;18782;48.984;8.548;2023-04-27T02:18:19;100033.44;;;7.63;89.35
32298;BME280;18782;48.984;8.548;2023-04-27T02:20:47;100036.78;;;7.62;89.05
32298;BME280;18782;48.984;8.548;2023-04-27T02:23:14;100045.41;;;7.64;89.04
32298;BME280;18782;48.984;8.548;2023-04-27T02:25:42;100042.16;;;7.68;88.31
32298;BME280;18782;48.984;8.548;2023-04-27T02:28:12;100043.06;;;7.70;88.82
32298;BME280;18782;48.984;8.548;2023-04-27T02:30:41;100044.00;;;7.72;89.15
32298;BME280;18782;48.984;8.548;2023-04-27T02:33:08;100043.06;;;7.70;89.48
32298;BME280;18782;48.984;8.548;2023-04-27T02:35:37;100037.94;;;7.70;89.07
32298;BME280;18782;48.984;8.548;2023-04-27T02:38:05;100046.47;;;7.69;89.11
32298;BME280;18782;48.984;8.548;2023-04-27T02:40:36;100049.94;;;7.71;88.71
32298;BME280;18782;48.984;8.548;2023-04-27T02:43:05;100045.69;;;7.71;89.13
32298;BME280;18782;48.984;8.548;2023-04-27T02:45:35;100053.44;;;7.73;88.98
32298;BME280;18782;48.984;8.548;2023-04-27T02:48:04;100051.81;;;7.75;88.76
32298;BME280;18782;48.984;8.548;2023-04-27T02:50:32;100045.03;;;7.77;88.47
32298;BME280;18782;48.984;8.548;2023-04-27T02:53:01;100049.38;;;7.78;88.67
32298;BME280;18782;48.984;8.548;2023-04-27T02:55:29;100049.38;;;7.78;88.78
32298;BME280;18782;48.984;8.548;2023-04-27T02:57:57;100048.56;;;7.79;88.31
32298;BME280;18782;48.984;8.548;2023-04-27T03:00:25;100049.41;;;7.79;88.35
32298;BME280;18782;48.984;8.548;2023-04-27T03:02:52;100054.59;;;7.81;88.31
32298;BME280;18782;48.984;8.548;2023-04-27T03:05:20;100051.22;;;7.82;88.04
32298;BME280;18782;48.984;8.548;2023-04-27T03:07:48;100053.78;;;7.82;88.60
32298;BME280;18782;48.984;8.548;2023-04-27T03:10:17;100050.41;;;7.83;88.76
32298;BME280;18782;48.984;8.548;2023-04-27T03:12:45;100054.72;;;7.84;89.07
32298;BME280;18782;48.984;8.548;2023-04-27T03:15:12;100055.59;;;7.84;88.85
32298;BME280;18782;48.984;8.548;2023-04-27T03:17:40;100051.34;;;7.85;89.21
32298;BME280;18782;48.984;8.548;2023-04-27T03:20:08;100047.91;;;7.84;89.19
32298;BME280;18782;48.984;8.548;2023-04-27T03:22:36;100048.78;;;7.85;89.34
32298;BME280;18782;48.984;8.548;2023-04-27T03:25:04;100048.88;;;7.88;88.96
32298;BME280;18782;48.984;8.548;2023-04-27T03:27:34;100052.34;;;7.89;89.18
32298;BME280;18782;48.984;8.548;2023-04-27T03:30:01;100045.38;;;7.86;89.23
32298;BME280;18782;48.984;8.548;2023-04-27T03:32:29;100047.13;;;7.87;88.54
32298;BME280;18782;48.984;8.548;2023-04-27T03:34:59;100053.13;;;7.88;88.87
32298;BME280;18782;48.984;8.548;2023-04-27T03:37:28;100061.75;;;7.90;88.75
32298;BME280;18782;48.984;8.548;2023-04-27T03:39:56;100056.56;;;7.88;89.08
32298;BME280;18782;48.984;8.548;2023-04-27T03:42:23;100057.38;;;7.87;89.52
32298;BME280;18782;48.984;8.548;2023-04-27T03:44:52;100052.25;;;7.87;89.87
32298;BME280;18782;48.984;8.548;2023-04-27T03:47:20;100055.75;;;7.89;89.58
32298;BME280;18782;48.984;8.548;2023-04-27T03:49:48;100050.63;;;7.89;88.97
32298;BME280;18782;48.984;8.548;2023-04-27T03:52:15;100053.13;;;7.88;89.44
32298;BME280;18782;48.984;8.548;2023-04-27T03:54:43;100048.00;;;7.88;89.38
32298;BME280;18782;48.984;8.548;2023-04-27T03:57:11;100055.63;;;7.86;89.47
32298;BME280;18782;48.984;8.548;2023-04-27T03:59:38;100053.13;;;7.88;89.65
32298;BME280;18782;48.984;8.548;2023-04-27T04:02:07;100054.13;;;7.91;88.97
32298;BME280;18782;48.984;8.548;2023-04-27T04:04:35;100054.13;;;7.91;89.18
32298;BME280;18782;48.984;8.548;2023-04-27T04:07:03;100061.94;;;7.94;89.16
32298;BME280;18782;48.984;8.548;2023-04-27T04:09:31;100062.72;;;7.93;89.36
32298;BME280;18782;48.984;8.548;2023-04-27T04:11:59;100066.22;;;7.95;89.14
32298;BME280;18782;48.984;8.548;2023-04-27T04:14:27;100070.50;;;7.95;89.31
32298;BME280;18782;48.984;8.548;2023-04-27T04:16:56;100062.84;;;7.96;89.12
32298;BME280;18782;48.984;8.548;2023-04-27T04:19:25;100071.38;;;7.95;89.34
32298;BME280;18782;48.984;8.548;2023-04-27T04:21:52;100065.59;;;8.01;89.42
32298;BME280;18782;48.984;8.548;2023-04-27T04:24:22;100057.06;;;8.02;89.59
32298;BME280;18782;48.984;8.548;2023-04-27T04:26:50;100061.44;;;8.04;89.50
32298;BME280;18782;48.984;8.548;2023-04-27T04:29:18;100063.19;;;8.05;89.52
32298;BME280;18782;48.984;8.548;2023-04-27T04:31:47;100063.16;;;8.04;89.34
32298;BME280;18782;48.984;8.548;2023-04-27T04:34:14;100051.19;;;8.04;88.81
32298;BME280;18782;48.984;8.548;2023-04-27T04:36:45;100064.94;;;8.06;88.57
32298;BME280;18782;48.984;8.548;2023-04-27T04:39:12;100055.66;;;8.10;88.99
32298;BME280;18782;48.984;8.548;2023-04-27T04:41:41;100063.28;;;8.08;88.60
32298;BME280;18782;48.984;8.548;2023-04-27T04:44:11;100063.53;;;8.15;87.90
32298;BME280;18782;48.984;8.548;2023-04-27T04:46:39;100063.53;;;8.15;87.99
32298;BME280;18782;48.984;8.548;2023-04-27T04:49:07;100068.75;;;8.18;88.19
32298;BME280;18782;48.984;8.548;2023-04-27T04:51:35;100070.50;;;8.19;88.43
32298;BME280;18782;48.984;8.548;2023-04-27T04:54:05;100063.78;;;8.22;88.03
32298;BME280;18782;48.984;8.548;2023-04-27T04:56:33;100068.97;;;8.24;88.44
32298;BME280;18782;48.984;8.548;2023-04-27T04:59:02;100062.22;;;8.26;88.29
32298;BME280;18782;48.984;8.548;2023-04-27T05:01:30;100069.69;;;8.20;88.10
32298;BME280;18782;48.984;8.548;2023-04-27T05:03:58;100073.19;;;8.22;88.11
32298;BME280;18782;48.984;8.548;2023-04-27T05:06:26;100075.03;;;8.26;87.91
32298;BME280;18782;48.984;8.548;2023-04-27T05:08:54;100076.81;;;8.28;88.21
32298;BME280;18782;48.984;8.548;2023-04-27T05:11:23;100077.66;;;8.27;87.78
32298;BME280;18782;48.984;8.548;2023-04-27T05:13:51;100074.22;;;8.27;87.96
32298;BME280;18782;48.984;8.548;2023-04-27T05:16:18;100074.44;;;8.33;87.98
32298;BME280;18782;48.984;8.548;2023-04-27T05:18:46;100078.94;;;8.39;87.80
32298;BME280;18782;48.984;8.548;2023-04-27T05:21:14;100081.53;;;8.40;87.75
32298;BME280;18782;48.984;8.548;2023-04-27T05:23:42;100081.66;;;8.43;87.85
32298;BME280;18782;48.984;8.548;2023-04-27T05:26:11;100093.78;;;8.47;87.42
32298;BME280;18782;48.984;8.548;2023-04-27T05:28:41;100089.53;;;8.48;87.14
32298;BME280;18782;48.984;8.548;2023-04-27T05:31:08;100094.97;;;8.57;86.90
32298;BME280;18782;48.984;8.548;2023-04-27T05:33:36;100099.53;;;8.66;86.68
32298;BME280;18782;48.984;8.548;2023-04-27T05:36:04;100091.41;;;8.77;88.22
32298;BME280;18782;48.984;8.548;2023-04-27T05:38:32;100098.53;;;8.86;86.74
32298;BME280;18782;48.984;8.548;2023-04-27T05:41:01;100103.16;;;8.96;86.15
32298;BME280;18782;48.984;8.548;2023-04-27T05:43:28;100101.75;;;9.06;86.05
32298;BME280;18782;48.984;8.548;2023-04-27T05:45:57;100106.34;;;9.14;85.77
32298;BME280;18782;48.984;8.548;2023-04-27T05:48:25;100103.97;;;9.21;85.44
32298;BME280;18782;48.984;8.548;2023-04-27T05:50:58;100102.59;;;9.32;84.80
32298;BME280;18782;48.984;8.548;2023-04-27T05:53:26;100109.75;;;9.40;83.89
32298;BME280;18782;48.984;8.548;2023-04-27T05:55:55;100112.63;;;9.51;82.91
32298;BME280;18782;48.984;8.548;2023-04-27T05:58:24;100109.44;;;9.58;82.76
32298;BME280;18782;48.984;8.548;2023-04-27T06:00:52;100116.59;;;9.68;82.45
32298;BME280;18782;48.984;8.548;2023-04-27T06:03:21;100110.00;;;9.77;82.30
32298;BME280;18782;48.984;8.548;2023-04-27T06:05:53;100115.41;;;9.86;81.66
32298;BME280;18782;48.984;8.548;2023-04-27T06:08:24;100117.47;;;9.98;80.90
32298;BME280;18782;48.984;8.548;2023-04-27T06:10:53;100127.16;;;10.06;80.16
32298;BME280;18782;48.984;8.548;2023-04-27T06:13:20;100119.69;;;10.15;80.15
32298;BME280;18782;48.984;8.548;2023-04-27T06:15:48;100132.13;;;10.29;79.52
32298;BME280;18782;48.984;8.548;2023-04-27T06:18:16;100130.47;;;10.31;78.39
32298;BME280;18782;48.984;8.548;2023-04-27T06:20:45;100134.31;;;10.45;78.39
32298;BME280;18782;48.984;8.548;2023-04-27T06:23:12;100129.66;;;10.63;77.95
32298;BME280;18782;48.984;8.548;2023-04-27T06:25:40;100130.97;;;10.49;76.89
32298;BME280;18782;48.984;8.548;2023-04-27T06:28:07;100134.78;;;10.63;77.12
32298;BME280;18782;48.984;8.548;2023-04-27T06:30:35;100133.22;;;10.68;76.62
32298;BME280;18782;48.984;8.548;2023-04-27T06:33:05;100141.69;;;10.64;75.49
32298;BME280;18782;48.984;8.548;2023-04-27T06:35:32;100140.94;;;10.68;75.07
32298;BME280;18782;48.984;8.548;2023-04-27T06:38:01;100146.94;;;10.67;74.38
32298;BME280;18782;48.984;8.548;2023-04-27T06:40:32;100140.56;;;10.86;74.18
32298;BME280;18782;48.984;8.548;2023-04-27T06:43:00;100141.03;;;11.05;73.71
32298;BME280;18782;48.984;8.548;2023-04-27T06:45:28;100139.31;;;11.05;73.37
32298;BME280;18782;48.984;8.548;2023-04-27T06:47:55;100136.16;;;11.15;71.97
32298;BME280;18782;48.984;8.548;2023-04-27T06:50:23;100137.88;;;11.16;72.37
32298;BME280;18782;48.984;8.548;2023-04-27T06:52:51;100140.66;;;11.22;73.02
32298;BME280;18782;48.984;8.548;2023-04-27T06:55:20;100135.94;;;11.42;72.38
32298;BME280;18782;48.984;8.548;2023-04-27T06:57:47;100144.56;;;11.43;71.11
32298;BME280;18782;48.984;8.548;2023-04-27T07:00:15;100140.38;;;11.48;70.66
32298;BME280;18782;48.984;8.548;2023-04-27T07:02:43;100150.91;;;11.57;70.22
32298;BME280;18782;48.984;8.548;2023-04-27T07:05:11;100148.31;;;11.56;68.99
32298;BME280;18782;48.984;8.548;2023-04-27T07:07:38;100151.91;;;11.62;68.63
32298;BME280;18782;48.984;8.548;2023-04-27T07:10:07;100154.66;;;11.70;68.85
32298;BME280;18782;48.984;8.548;2023-04-27T07:12:37;100143.06;;;11.89;67.63
32298;BME280;18782;48.984;8.548;2023-04-27T07:15:06;100144.97;;;11.96;66.74
32298;BME280;18782;48.984;8.548;2023-04-27T07:17:34;100151.13;;;12.02;65.81
32298;BME280;18782;48.984;8.548;2023-04-27T07:20:01;100148.44;;;11.98;65.23
32298;BME280;18782;48.984;8.548;2023-04-27T07:22:31;100141.56;;;11.97;65.54
32298;BME280;18782;48.984;8.548;2023-04-27T07:24:59;100144.91;;;11.93;65.34
32298;BME280;18782;48.984;8.548;2023-04-27T07:27:26;100146.72;;;11.97;64.72
32298;BME280;18782;48.984;8.548;2023-04-27T07:29:55;100145.09;;;12.02;65.21
32298;BME280;18782;48.984;8.548;2023-04-27T07:32:23;100142.44;;;11.99;64.43
32298;BME280;18782;48.984;8.548;2023-04-27T07:34:54;100139.94;;;12.02;63.73
32298;BME280;18782;48.984;8.548;2023-04-27T07:37:22;100144.28;;;12.05;62.85
32298;BME280;18782;48.984;8.548;2023-04-27T07:39:50;100135.78;;;12.10;63.43
32298;BME280;18782;48.984;8.548;2023-04-27T07:42:18;100138.47;;;12.13;63.63
32298;BME280;18782;48.984;8.548;2023-04-27T07:44:47;100135.28;;;12.26;63.65
32298;BME280;18782;48.984;8.548;2023-04-27T07:47:17;100130.38;;;12.39;63.18
32298;BME280;18782;48.984;8.548;2023-04-27T07:49:45;100133.09;;;12.45;59.07
32298;BME280;18782;48.984;8.548;2023-04-27T07:52:13;100127.06;;;12.46;58.76
32298;BME280;18782;48.984;8.548;2023-04-27T07:54:41;100132.34;;;12.52;60.06
32298;BME280;18782;48.984;8.548;2023-04-27T07:57:09;100128.22;;;12.62;61.70
32298;BME280;18782;48.984;8.548;2023-04-27T07:59:37;100128.31;;;12.66;59.33
32298;BME280;18782;48.984;8.548;2023-04-27T08:02:05;100123.28;;;12.72;59.84
32298;BME280;18782;48.984;8.548;2023-04-27T08:04:46;100119.06;;;12.77;60.25
32298;BME280;18782;48.984;8.548;2023-04-27T08:07:15;100121.88;;;12.90;61.42
32298;BME280;18782;48.984;8.548;2023-04-27T08:09:43;100122.94;;;13.01;62.18
32298;BME280;18782;48.984;8.548;2023-04-27T08:12:11;100121.31;;;13.06;60.38
32298;BME280;18782;48.984;8.548;2023-04-27T08:14:38;100118.03;;;13.18;61.08
32298;BME280;18782;48.984;8.548;2023-04-27T08:17:06;100121.63;;;13.24;59.62
32298;BME280;18782;48.984;8.548;2023-04-27T08:19:34;100121.78;;;13.34;59.27
32298;BME280;18782;48.984;8.548;2023-04-27T08:22:03;100120.16;;;13.39;59.18
32298;BME280;18782;48.984;8.548;2023-04-27T08:24:30;100115.06;;;13.45;57.07
32298;BME280;18782;48.984;8.548;2023-04-27T08:26:58;100112.78;;;13.63;56.54
32298;BME280;18782;48.984;8.548;2023-04-27T08:29:26;100115.34;;;13.63;55.90
32298;BME280;18782;48.984;8.548;2023-04-27T08:31:58;100108.63;;;13.77;57.07
32298;BME280;18782;48.984;8.548;2023-04-27T08:34:26;100114.00;;;13.90;57.25
32298;BME280;18782;48.984;8.548;2023-04-27T08:36:53;100111.56;;;14.02;56.43
32298;BME280;18782;48.984;8.548;2023-04-27T08:39:23;100110.97;;;14.21;57.51
32298;BME280;18782;48.984;8.548;2023-04-27T08:41:51;100109.41;;;14.35;54.80
32298;BME280;18782;48.984;8.548;2023-04-27T08:44:18;100110.34;;;14.44;52.97
32298;BME280;18782;48.984;8.548;2023-04-27T08:46:46;100113.97;;;14.55;53.36
32298;BME280;18782;48.984;8.548;2023-04-27T08:49:14;100108.00;;;14.62;52.50
32298;BME280;18782;48.984;8.548;2023-04-27T08:51:43;100105.53;;;14.74;52.32
32298;BME280;18782;48.984;8.548;2023-04-27T08:54:10;100108.19;;;14.77;52.06
32298;BME280;18782;48.984;8.548;2023-04-27T08:56:39;100107.47;;;14.94;54.04
32298;BME280;18782;48.984;8.548;2023-04-27T08:59:12;100110.09;;;15.00;49.47
32298;BME280;18782;48.984;8.548;2023-04-27T09:01:45;100106.50;;;14.85;49.33
32298;BME280;18782;48.984;8.548;2023-04-27T09:04:14;100109.16;;;14.92;49.91
32298;BME280;18782;48.984;8.548;2023-04-27T09:06:43;100111.88;;;15.04;51.09
32298;BME280;18782;48.984;8.548;2023-04-27T09:09:20;100121.47;;;15.16;52.47
32298;BME280;18782;48.984;8.548;2023-04-27T09:11:49;100120.66;;;15.24;50.30
32298;BME280;18782;48.984;8.548;2023-04-27T09:14:19;100120.63;;;15.15;48.29
32298;BME280;18782;48.984;8.548;2023-04-27T09:16:53;100108.69;;;15.35;51.89
32298;BME280;18782;48.984;8.548;2023-04-27T09:19:25;100117.44;;;15.53;47.75
32298;BME280;18782;48.984;8.548;2023-04-27T09:22:02;100120.91;;;15.52;47.59
32298;BME280;18782;48.984;8.548;2023-04-27T09:24:30;100119.28;;;15.63;49.97
32298;BME280;18782;48.984;8.548;2023-04-27T09:26:59;100114.19;;;15.78;49.67
32298;BME280;18782;48.984;8.548;2023-04-27T09:29:33;100114.25;;;15.87;49.08
32298;BME280;18782;48.984;8.548;2023-04-27T09:32:02;100119.50;;;16.01;46.73
32298;BME280;18782;48.984;8.548;2023-04-27T09:34:42;100105.63;;;16.02;47.54
32298;BME280;18782;48.984;8.548;2023-04-27T09:37:11;100110.03;;;16.11;48.88
32298;BME280;18782;48.984;8.548;2023-04-27T09:39:40;100103.16;;;16.24;49.81
32298;BME280;18782;48.984;8.548;2023-04-27T09:42:10;100107.53;;;16.35;49.61
32298;BME280;18782;48.984;8.548;2023-04-27T09:44:38;100101.50;;;16.46;49.34
32298;BME280;18782;48.984;8.548;2023-04-27T09:47:06;100111.06;;;16.50;49.07
32298;BME280;18782;48.984;8.548;2023-04-27T09:49:34;100108.47;;;16.59;47.77
32298;BME280;18782;48.984;8.548;2023-04-27T09:52:02;100105.84;;;16.50;47.78
32298;BME280;18782;48.984;8.548;2023-04-27T09:54:31;100094.59;;;16.55;48.54
32298;BME280;18782;48.984;8.548;2023-04-27T09:57:12;100101.53;;;16.70;48.61
32298;BME280;18782;48.984;8.548;2023-04-27T09:59:55;100097.25;;;16.70;44.85
32298;BME280;18782;48.984;8.548;2023-04-27T10:02:38;100099.78;;;16.52;44.79
32298;BME280;18782;48.984;8.548;2023-04-27T10:05:44;100094.66;;;16.72;46.64
32298;BME280;18782;48.984;8.548;2023-04-27T10:08:16;100092.13;;;17.03;45.95
32298;BME280;18782;48.984;8.548;2023-04-27T10:10:47;100099.06;;;17.13;46.10
32298;BME280;18782;48.984;8.548;2023-04-27T10:13:24;100097.31;;;17.30;45.36
32298;BME280;18782;48.984;8.548;2023-04-27T10:15:52;100092.94;;;17.57;46.85
32298;BME280;18782;48.984;8.548;2023-04-27T10:18:28;100094.66;;;17.61;43.43
32298;BME280;18782;48.984;8.548;2023-04-27T10:20:56;100090.28;;;17.96;43.59
32298;BME280;18782;48.984;8.548;2023-04-27T10:23:44;100093.69;;;18.12;43.23
32298;BME280;18782;48.984;8.548;2023-04-27T10:26:12;100082.31;;;18.33;43.07
32298;BME280;18782;48.984;8.548;2023-04-27T10:28:41;100081.47;;;18.23;40.54
32298;BME280;18782;48.984;8.548;2023-04-27T10:31:10;100082.34;;;18.21;41.50
32298;BME280;18782;48.984;8.548;2023-04-27T10:33:41;100090.13;;;18.30;43.58
32298;BME280;18782;48.984;8.548;2023-04-27T10:36:13;100084.69;;;18.76;44.31
32298;BME280;18782;48.984;8.548;2023-04-27T10:38:41;100080.03;;;19.18;42.79
32298;BME280;18782;48.984;8.548;2023-04-27T10:41:13;100084.06;;;19.52;41.67
32298;BME280;18782;48.984;8.548;2023-04-27T10:43:42;100085.44;;;19.90;41.58
32298;BME280;18782;48.984;8.548;2023-04-27T10:46:11;100089.38;;;20.23;39.80
32298;BME280;18782;48.984;8.548;2023-04-27T10:48:39;100080.44;;;20.40;40.19
32298;BME280;18782;48.984;8.548;2023-04-27T10:51:07;100083.88;;;20.46;38.68
32298;BME280;18782;48.984;8.548;2023-04-27T10:53:36;100080.38;;;20.47;37.74
32298;BME280;18782;48.984;8.548;2023-04-27T10:56:04;100079.88;;;20.15;39.01
32298;BME280;18782;48.984;8.548;2023-04-27T10:58:32;100077.78;;;20.47;39.40
32298;BME280;18782;48.984;8.548;2023-04-27T11:01:08;100068.81;;;20.64;38.47
32298;BME280;18782;48.984;8.548;2023-04-27T11:03:36;100073.91;;;20.73;40.04
32298;BME280;18782;48.984;8.548;2023-04-27T11:06:05;100066.53;;;20.99;37.91
32298;BME280;18782;48.984;8.548;2023-04-27T11:08:42;100060.09;;;21.17;37.07
32298;BME280;18782;48.984;8.548;2023-04-27T11:11:13;100067.84;;;21.23;37.87
32298;BME280;18782;48.984;8.548;2023-04-27T11:13:43;100060.81;;;21.27;37.26
32298;BME280;18782;48.984;8.548;2023-04-27T11:16:14;100058.19;;;21.27;35.82
32298;BME280;18782;48.984;8.548;2023-04-27T11:18:42;100068.25;;;21.00;37.22
32298;BME280;18782;48.984;8.548;2023-04-27T11:21:11;100068.25;;;21.00;37.59
32298;BME280;18782;48.984;8.548;2023-04-27T11:23:39;100065.88;;;21.39;37.79
32298;BME280;18782;48.984;8.548;2023-04-27T11:26:08;100067.78;;;21.31;36.67
32298;BME280;18782;48.984;8.548;2023-04-27T11:28:36;100058.00;;;21.39;37.23
32298;BME280;18782;48.984;8.548;2023-04-27T11:31:05;100061.72;;;21.74;36.17
32298;BME280;18782;48.984;8.548;2023-04-27T11:33:34;100060.75;;;21.79;36.49
32298;BME280;18782;48.984;8.548;2023-04-27T11:36:02;100049.56;;;21.70;36.05
32298;BME280;18782;48.984;8.548;2023-04-27T11:38:33;100053.38;;;21.53;34.85
32298;BME280;18782;48.984;8.548;2023-04-27T11:41:03;100038.41;;;21.60;35.42
32298;BME280;18782;48.984;8.548;2023-04-27T11:43:32;100045.13;;;21.75;35.34
32298;BME280;18782;48.984;8.548;2023-04-27T11:46:01;100045.75;;;21.86;35.98
32298;BME280;18782;48.984;8.548;2023-04-27T11:48:29;100043.25;;;22.25;35.87
32298;BME280;18782;48.984;8.548;2023-04-27T11:50:58;100041.06;;;22.45;35.25
32298;BME280;18782;48.984;8.548;2023-04-27T11:53:31;100042.09;;;22.36;35.66
32298;BME280;18782;48.984;8.548;2023-04-27T11:55:59;100037.22;;;22.58;34.77
32298;BME280;18782;48.984;8.548;2023-04-27T11:58:28;100027.28;;;22.73;34.60
32298;BME280;18782;48.984;8.548;2023-04-27T12:00:56;100027.19;;;22.76;33.56
32298;BME280;18782;48.984;8.548;2023-04-27T12:03:24;100022.34;;;22.60;32.23
32298;BME280;18782;48.984;8.548;2023-04-27T12:05:52;100016.88;;;22.31;32.61
32298;BME280;18782;48.984;8.548;2023-04-27T12:08:22;100016.31;;;22.17;34.37
32298;BME280;18782;48.984;8.548;2023-04-27T12:10:50;100010.09;;;22.59;33.63
32298;BME280;18782;48.984;8.548;2023-04-27T12:13:17;100021.47;;;22.97;32.70
32298;BME280;18782;48.984;8.548;2023-04-27T12:15:45;100010.22;;;23.57;32.38
32298;BME280;18782;48.984;8.548;2023-04-27T12:18:13;100008.88;;;23.44;33.52
32298;BME280;18782;48.984;8.548;2023-04-27T12:20:40;100013.59;;;23.62;32.39
32298;BME280;18782;48.984;8.548;2023-04-27T12:23:08;100007.53;;;23.60;31.78
32298;BME280;18782;48.984;8.548;2023-04-27T12:25:37;100004.31;;;24.11;32.43
32298;BME280;18782;48.984;8.548;2023-04-27T12:28:07;100004.13;;;24.47;30.98
32298;BME280;18782;48.984;8.548;2023-04-27T12:30:35;99995.94;;;24.83;31.01
32298;BME280;18782;48.984;8.548;2023-04-27T12:33:02;99991.38;;;24.88;29.17
32298;BME280;18782;48.984;8.548;2023-04-27T12:35:35;100006.88;;;24.70;28.88
32298;BME280;18782;48.984;8.548;2023-04-27T12:38:02;99996.50;;;24.38;30.24
32298;BME280;18782;48.984;8.548;2023-04-27T12:40:30;99993.44;;;24.24;30.03
32298;BME280;18782;48.984;8.548;2023-04-27T12:42:59;99990.44;;;23.77;30.55
32298;BME280;18782;48.984;8.548;2023-04-27T12:45:27;99997.16;;;23.54;30.89
32298;BME280;18782;48.984;8.548;2023-04-27T12:47:54;99992.13;;;24.09;31.40
32298;BME280;18782;48.984;8.548;2023-04-27T12:50:29;99981.97;;;24.81;32.00
32298;BME280;18782;48.984;8.548;2023-04-27T12:52:58;99982.56;;;25.40;30.67
32298;BME280;18782;48.984;8.548;2023-04-27T12:55:26;99985.09;;;25.92;30.11
32298;BME280;18782;48.984;8.548;2023-04-27T12:57:56;99984.16;;;26.38;28.51
32298;BME280;18782;48.984;8.548;2023-04-27T13:00:25;99984.13;;;26.82;28.23
32298;BME280;18782;48.984;8.548;2023-04-27T13:02:54;99980.66;;;27.02;27.77
32298;BME280;18782;48.984;8.548;2023-04-27T13:05:24;99979.31;;;27.73;26.86
32298;BME280;18782;48.984;8.548;2023-04-27T13:07:52;99979.31;;;28.11;25.91